Time;durP1;ratioP1;P1;durP2;ratioP2;P2;SDS_P1;SDS_P2;PMS_P1;PMS_P2;Temp;Humidity;BMP_temperature;BMP_pressure;BME280_temperature;BME280_humidity;BME280_pressure;Samples;Min_cycle;Max_cycle;Signal;HPM_P1;HPM_P2
2023/02/17 00:02:10;;;;;;;32.23;20.87;;;;;;;;;;5013594;28;20798;-83
2023/02/17 00:04:36;;;;;;;24.77;19.00;;;;;;;;;;5015009;28;20428;-95
2023/02/17 00:07:02;;;;;;;26.10;19.70;;;;;;;;;;5017281;28;20879;-84
2023/02/17 00:09:33;;;;;;;27.43;20.10;;;;;;;;;;4991814;28;20932;-85
2023/02/17 00:11:59;;;;;;;25.73;19.67;;;;;;;;;;5014619;28;20448;-84
2023/02/17 00:14:25;;;;;;;25.97;18.83;;;;;;;;;;5017028;28;20463;-82
2023/02/17 00:16:51;;;;;;;24.33;19.30;;;;;;;;;;5014060;28;20421;-93
2023/02/17 00:19:23;;;;;;;25.43;18.30;;;;;;;;;;5013382;28;20409;-87
2023/02/17 00:21:59;;;;;;;24.03;17.60;;;;;;;;;;5014096;28;20434;-89
2023/02/17 00:24:26;;;;;;;27.13;19.77;;;;;;;;;;5012843;28;20894;-95
2023/02/17 00:26:52;;;;;;;25.23;18.40;;;;;;;;;;5016716;28;20409;-83
2023/02/17 00:29:18;;;;;;;25.33;17.67;;;;;;;;;;5019860;28;20413;-88
2023/02/17 00:31:44;;;;;;;27.30;17.87;;;;;;;;;;5018829;28;20516;-85
2023/02/17 00:34:10;;;;;;;26.40;19.90;;;;;;;;;;5020147;28;20480;-83
2023/02/17 00:36:36;;;;;;;22.47;15.63;;;;;;;;;;5022381;28;20528;-84
2023/02/17 00:39:02;;;;;;;22.07;16.00;;;;;;;;;;5018301;28;20427;-85
2023/02/17 00:41:28;;;;;;;22.67;17.03;;;;;;;;;;5025147;28;20428;-83
2023/02/17 00:43:54;;;;;;;19.07;15.13;;;;;;;;;;5024306;28;20885;-83
2023/02/17 00:46:21;;;;;;;25.43;17.47;;;;;;;;;;5023312;28;20536;-82
2023/02/17 00:48:47;;;;;;;26.07;18.43;;;;;;;;;;5038395;28;20428;-83
2023/02/17 00:51:14;;;;;;;22.90;17.77;;;;;;;;;;5036529;28;20516;-91
2023/02/17 00:53:40;;;;;;;19.60;15.90;;;;;;;;;;5030661;28;20428;-83
2023/02/17 00:56:06;;;;;;;20.90;14.97;;;;;;;;;;5028187;28;20442;-85
2023/02/17 00:58:32;;;;;;;19.57;15.07;;;;;;;;;;4995521;28;20424;-90
2023/02/17 01:00:58;;;;;;;20.83;15.10;;;;;;;;;;5013179;28;20426;-89
2023/02/17 01:03:25;;;;;;;23.00;17.93;;;;;;;;;;4998776;28;20415;-83
2023/02/17 01:05:51;;;;;;;20.63;16.37;;;;;;;;;;5002470;28;20995;-84
2023/02/17 01:08:17;;;;;;;20.17;15.10;;;;;;;;;;5002802;28;20411;-94
2023/02/17 01:10:44;;;;;;;24.90;16.87;;;;;;;;;;5011515;28;20422;-94
2023/02/17 01:13:10;;;;;;;20.60;15.03;;;;;;;;;;5012312;28;20502;-86
2023/02/17 01:15:37;;;;;;;22.10;16.30;;;;;;;;;;4997489;28;20616;-89
2023/02/17 01:18:03;;;;;;;23.40;17.70;;;;;;;;;;4996527;28;20416;-91
2023/02/17 01:20:29;;;;;;;21.43;15.63;;;;;;;;;;4999509;28;20415;-92
2023/02/17 01:22:55;;;;;;;20.80;15.70;;;;;;;;;;5002310;28;20409;-95
2023/02/17 01:25:21;;;;;;;23.60;16.43;;;;;;;;;;5001887;28;20427;-83
2023/02/17 01:27:47;;;;;;;21.10;15.17;;;;;;;;;;5008413;28;20453;-83
2023/02/17 01:30:13;;;;;;;18.27;14.40;;;;;;;;;;5005873;28;20447;-84
2023/02/17 01:32:39;;;;;;;20.37;14.80;;;;;;;;;;5015462;28;20509;-82
2023/02/17 01:35:05;;;;;;;22.03;16.63;;;;;;;;;;5003541;28;20475;-92
2023/02/17 01:37:32;;;;;;;20.57;15.63;;;;;;;;;;5001985;28;20454;-80
2023/02/17 01:39:58;;;;;;;25.93;17.73;;;;;;;;;;5003876;28;20441;-80
2023/02/17 01:42:24;;;;;;;26.10;17.07;;;;;;;;;;5015598;28;20423;-87
2023/02/17 01:45:09;;;;;;;24.50;17.83;;;;;;;;;;5006663;28;20466;-86
2023/02/17 01:47:35;;;;;;;24.67;18.20;;;;;;;;;;5007963;28;20406;-80
2023/02/17 01:50:01;;;;;;;24.00;18.23;;;;;;;;;;5004952;28;21176;-93
2023/02/17 01:52:27;;;;;;;22.80;16.80;;;;;;;;;;4980612;28;20433;-87
2023/02/17 01:54:59;;;;;;;24.47;16.80;;;;;;;;;;5016259;28;20472;-84
2023/02/17 01:57:27;;;;;;;25.20;16.30;;;;;;;;;;5015027;28;20417;-86
2023/02/17 01:59:53;;;;;;;26.10;18.53;;;;;;;;;;5015061;28;20504;-81
2023/02/17 02:02:19;;;;;;;25.97;17.73;;;;;;;;;;5015815;28;20410;-93
2023/02/17 02:04:47;;;;;;;23.10;15.90;;;;;;;;;;5013919;28;20487;-82
2023/02/17 02:07:15;;;;;;;29.70;19.93;;;;;;;;;;5016924;28;20413;-93
2023/02/17 02:09:44;;;;;;;24.10;16.87;;;;;;;;;;5016898;28;20421;-84
2023/02/17 02:12:21;;;;;;;25.17;19.30;;;;;;;;;;5019476;28;20419;-81
2023/02/17 02:14:50;;;;;;;28.07;20.00;;;;;;;;;;5020654;28;20474;-89
2023/02/17 02:17:35;;;;;;;23.53;17.87;;;;;;;;;;5019031;28;20453;-81
2023/02/17 02:20:11;;;;;;;21.67;16.77;;;;;;;;;;5018238;28;20421;-82
2023/02/17 02:22:40;;;;;;;22.40;16.33;;;;;;;;;;5024148;28;20391;-85
2023/02/17 02:25:09;;;;;;;24.03;17.30;;;;;;;;;;5025829;28;20419;-81
2023/02/17 02:27:45;;;;;;;21.73;14.70;;;;;;;;;;5025915;28;20421;-81
2023/02/17 02:30:17;;;;;;;24.80;18.30;;;;;;;;;;5017358;28;20426;-89
2023/02/17 02:32:43;;;;;;;27.73;18.47;;;;;;;;;;5014327;28;20409;-82
2023/02/17 02:35:15;;;;;;;21.33;14.27;;;;;;;;;;5014428;28;20695;-89
2023/02/17 02:38:02;;;;;;;22.17;15.37;;;;;;;;;;5013893;28;20564;-81
2023/02/17 02:40:31;;;;;;;26.03;15.97;;;;;;;;;;5013410;28;20402;-87
2023/02/17 02:42:57;;;;;;;24.80;17.20;;;;;;;;;;5013465;28;20428;-81
2023/02/17 02:45:23;;;;;;;24.17;15.93;;;;;;;;;;5014279;28;20465;-81
2023/02/17 02:47:53;;;;;;;21.50;16.00;;;;;;;;;;5013259;28;20906;-81
2023/02/17 02:50:35;;;;;;;23.57;16.60;;;;;;;;;;5017353;28;20420;-84
2023/02/17 02:53:10;;;;;;;20.77;15.00;;;;;;;;;;5026972;28;20413;-82
2023/02/17 02:56:04;;;;;;;19.70;13.60;;;9.00;99.90;;;;;;5019041;28;20510;-82
2023/02/17 02:58:55;;;;;;;19.27;12.90;;;9.00;99.90;;;;;;5016289;28;20418;-86
2023/02/17 03:01:38;;;;;;;24.07;15.00;;;8.90;99.90;;;;;;5023099;28;20426;-86
2023/02/17 03:04:18;;;;;;;20.10;14.50;;;8.90;99.90;;;;;;5017662;28;20419;-95
2023/02/17 03:07:19;;;;;;;21.87;14.20;;;9.00;99.90;;;;;;5019687;28;20423;-82
2023/02/17 03:09:54;;;;;;;19.53;14.57;;;9.00;99.90;;;;;;5015165;28;20410;-81
2023/02/17 03:12:20;;;;;;;18.03;12.50;;;;;;;;;;5018153;28;20441;-81
2023/02/17 03:14:49;;;;;;;20.47;14.07;;;;;;;;;;5020248;28;20469;-91
2023/02/17 03:17:14;;;;;;;15.40;11.37;;;8.90;99.90;;;;;;5020167;28;20423;-84
2023/02/17 03:19:40;;;;;;;17.83;13.60;;;8.90;99.90;;;;;;5026208;28;20473;-93
2023/02/17 03:22:16;;;;;;;16.03;10.23;;;9.00;99.90;;;;;;5016488;28;20242;-93
2023/02/17 03:24:48;;;;;;;16.90;12.03;;;9.00;99.90;;;;;;4977974;28;20485;-82
2023/02/17 03:27:14;;;;;;;15.57;10.53;;;;;;;;;;5016918;28;20421;-82
2023/02/17 03:29:39;;;;;;;17.33;11.90;;;;;;;;;;5021636;28;20550;-87
2023/02/17 03:32:05;;;;;;;18.33;12.67;;;8.70;99.90;;;;;;5018341;28;20425;-87
2023/02/17 03:34:31;;;;;;;15.73;11.23;;;;;;;;;;5015215;28;20960;-81
2023/02/17 03:36:57;;;;;;;15.77;11.10;;;9.00;99.90;;;;;;5019044;28;20165;-83
2023/02/17 03:39:26;;;;;;;17.40;11.77;;;8.50;99.90;;;;;;5022077;28;20521;-80
2023/02/17 03:41:52;;;;;;;17.67;12.43;;;;;;;;;;5022312;28;20177;-90
2023/02/17 03:44:18;;;;;;;15.30;11.40;;;;;;;;;;5023043;28;20441;-91
2023/02/17 03:46:45;;;;;;;18.77;12.23;;;;;;;;;;5023362;28;20430;-83
2023/02/17 03:49:11;;;;;;;15.97;11.40;;;;;;;;;;5014742;28;20427;-84
2023/02/17 03:51:37;;;;;;;16.57;10.50;;;;;;;;;;5013433;28;20421;-80
2023/02/17 03:54:02;;;;;;;17.90;10.80;;;9.00;99.90;;;;;;5012903;28;20984;-78
2023/02/17 03:56:28;;;;;;;16.37;10.20;;;9.10;99.90;;;;;;5011513;28;20438;-82
2023/02/17 03:58:54;;;;;;;17.87;11.30;;;9.00;99.90;;;;;;5013230;28;20230;-91
2023/02/17 04:01:19;;;;;;;18.23;11.10;;;9.10;99.90;;;;;;5013219;28;20192;-82
2023/02/17 04:03:45;;;;;;;14.83;10.60;;;9.10;99.90;;;;;;5013426;28;20176;-85
2023/02/17 04:06:11;;;;;;;16.20;10.23;;;9.10;99.90;;;;;;5013076;28;20430;-90
2023/02/17 04:08:36;;;;;;;15.80;10.20;;;9.10;99.90;;;;;;5017221;28;20197;-87
2023/02/17 04:11:04;;;;;;;16.23;10.77;;;9.10;99.90;;;;;;5016372;28;20167;-79
2023/02/17 04:13:33;;;;;;;11.70;8.37;;;9.10;99.90;;;;;;5015786;28;20279;-91
2023/02/17 04:16:07;;;;;;;14.83;9.03;;;9.10;99.90;;;;;;5014899;28;21012;-83
2023/02/17 04:18:36;;;;;;;14.60;9.60;;;9.10;99.90;;;;;;5017066;28;21031;-92
2023/02/17 04:21:02;;;;;;;13.10;9.20;;;9.10;99.90;;;;;;5017044;28;20485;-86
2023/02/17 04:23:27;;;;;;;13.73;10.00;;;9.10;99.90;;;;;;5017808;28;20423;-86
2023/02/17 04:25:56;;;;;;;12.90;9.40;;;9.20;99.90;;;;;;5016210;28;20617;-87
2023/02/17 04:28:21;;;;;;;13.97;8.63;;;9.20;99.90;;;;;;5017130;28;20218;-90
2023/02/17 04:30:49;;;;;;;18.37;10.90;;;9.20;99.90;;;;;;5018580;28;20449;-94
2023/02/17 04:33:15;;;;;;;13.03;9.83;;;9.20;99.90;;;;;;5019323;28;20188;-86
2023/02/17 04:35:41;;;;;;;14.07;8.70;;;9.20;99.90;;;;;;5016733;28;20470;-84
2023/02/17 04:38:09;;;;;;;14.67;10.50;;;9.20;99.90;;;;;;5016808;28;20406;-94
2023/02/17 04:40:35;;;;;;;11.97;8.17;;;9.20;99.90;;;;;;5017200;28;20413;-93
2023/02/17 04:43:00;;;;;;;11.90;7.33;;;9.20;99.90;;;;;;5018002;28;20977;-84
2023/02/17 04:45:26;;;;;;;14.70;9.10;;;9.20;99.90;;;;;;5018079;28;20227;-91
2023/02/17 04:47:51;;;;;;;14.73;10.27;;;9.30;99.90;;;;;;5018353;28;20178;-89
2023/02/17 04:50:17;;;;;;;12.90;9.40;;;9.20;99.90;;;;;;5018274;28;20260;-94
2023/02/17 04:52:42;;;;;;;13.87;9.50;;;9.20;99.90;;;;;;5017714;28;20503;-94
2023/02/17 04:55:08;;;;;;;12.03;8.90;;;9.20;99.90;;;;;;5016282;28;20990;-90
2023/02/17 04:57:34;;;;;;;14.23;9.53;;;9.20;99.90;;;;;;4978321;28;20193;-93
2023/02/17 04:59:59;;;;;;;13.30;8.30;;;9.20;99.90;;;;;;5018015;28;20202;-92
2023/02/17 05:02:29;;;;;;;13.80;8.90;;;9.20;99.90;;;;;;5029802;28;20170;-83
2023/02/17 05:04:55;;;;;;;16.30;9.73;;;9.30;99.90;;;;;;5025564;28;20185;-86
2023/02/17 05:07:21;;;;;;;15.70;10.40;;;9.30;99.90;;;;;;5016933;28;20425;-87
2023/02/17 05:09:47;;;;;;;14.00;9.90;;;9.20;99.90;;;;;;5016862;28;20172;-91
2023/02/17 05:12:12;;;;;;;15.93;10.30;;;9.20;99.90;;;;;;5015772;28;20651;-87
2023/02/17 05:14:37;;;;;;;14.97;10.23;;;9.30;99.90;;;;;;5015661;28;20269;-92
2023/02/17 05:17:06;;;;;;;14.63;9.83;;;9.20;99.90;;;;;;5016986;28;20175;-93
2023/02/17 05:19:34;;;;;;;14.87;11.37;;;9.30;99.90;;;;;;5016270;28;20175;-84
2023/02/17 05:22:03;;;;;;;14.53;10.30;;;9.40;99.90;;;;;;5015360;28;20423;-84
2023/02/17 05:24:28;;;;;;;15.97;9.93;;;9.40;99.90;;;;;;5016169;28;20410;-89
2023/02/17 05:26:54;;;;;;;13.77;9.03;;;9.40;99.90;;;;;;5016627;28;20946;-89
2023/02/17 05:29:23;;;;;;;17.20;10.77;;;9.40;99.90;;;;;;5016317;28;20706;-87
2023/02/17 05:31:48;;;;;;;19.90;11.80;;;9.50;99.90;;;;;;5016238;28;20171;-88
2023/02/17 05:34:14;;;;;;;23.30;13.27;;;9.50;99.90;;;;;;5016075;28;20866;-84
2023/02/17 05:36:39;;;;;;;20.03;12.30;;;9.50;99.90;;;;;;5015097;28;20175;-90
2023/02/17 05:39:05;;;;;;;20.03;11.13;;;9.40;99.90;;;;;;5015247;28;20172;-83
2023/02/17 05:41:30;;;;;;;18.97;12.00;;;9.50;99.90;;;;;;5014413;28;20687;-89
2023/02/17 05:43:56;;;;;;;18.77;12.10;;;9.40;99.90;;;;;;5015994;28;20182;-82
2023/02/17 05:46:21;;;;;;;25.23;14.50;;;9.50;99.90;;;;;;5015592;28;20751;-89
2023/02/17 05:48:50;;;;;;;20.00;13.07;;;;;;;;;;5016631;28;20557;-90
2023/02/17 05:51:19;;;;;;;23.97;13.93;;;;;;;;;;5016964;28;20902;-91
2023/02/17 05:53:45;;;;;;;25.40;14.37;;;;;;;;;;5017069;28;20406;-89
2023/02/17 05:56:11;;;;;;;20.50;13.53;;;;;;;;;;5015247;28;20477;-91
2023/02/17 05:58:37;;;;;;;23.77;15.10;;;;;;;;;;5016757;28;20177;-91
2023/02/17 06:01:06;;;;;;;27.77;14.57;;;;;;;;;;4969946;28;20427;-84
2023/02/17 06:03:33;;;;;;;27.83;15.90;;;;;;;;;;4996347;28;20476;-91
2023/02/17 06:05:59;;;;;;;29.40;15.53;;;;;;;;;;4995931;28;20895;-84
2023/02/17 06:08:25;;;;;;;27.00;14.70;;;;;;;;;;4995800;28;20469;-88
2023/02/17 06:10:52;;;;;;;21.37;13.53;;;;;;;;;;4995200;28;20491;-84
2023/02/17 06:13:18;;;;;;;27.13;15.47;;;;;;;;;;4996095;28;20436;-90
2023/02/17 06:15:45;;;;;;;26.50;14.73;;;;;;;;;;4995664;28;20467;-84
2023/02/17 06:18:11;;;;;;;26.07;14.00;;;;;;;;;;4995575;28;21058;-84
2023/02/17 06:20:37;;;;;;;26.30;13.93;;;;;;;;;;4996027;28;20446;-89
2023/02/17 06:23:03;;;;;;;23.00;12.30;;;;;;;;;;4996080;28;20173;-90
2023/02/17 06:25:29;;;;;;;27.17;15.30;;;;;;;;;;4995620;28;20425;-87
2023/02/17 06:27:54;;;;;;;25.13;13.80;;;;;;;;;;4994021;28;20443;-83
2023/02/17 06:30:20;;;;;;;25.27;14.43;;;;;;;;;;4994508;28;20184;-82
2023/02/17 06:32:47;;;;;;;22.33;12.90;;;;;;;;;;4995067;28;20775;-83
2023/02/17 06:35:13;;;;;;;26.80;14.40;;;;;;;;;;4995071;28;20498;-88
2023/02/17 06:37:39;;;;;;;24.97;12.80;;;;;;;;;;4994114;28;20408;-88
2023/02/17 06:40:05;;;;;;;23.83;14.57;;;;;;;;;;4993956;28;20451;-88
2023/02/17 06:42:31;;;;;;;28.53;14.50;;;;;;;;;;4994863;28;20404;-84
2023/02/17 06:44:59;;;;;;;20.57;13.63;;;;;;;;;;4994807;28;20882;-90
2023/02/17 06:47:25;;;;;;;30.17;15.00;;;;;;;;;;4993143;28;20602;-88
2023/02/17 06:49:51;;;;;;;29.27;17.10;;;;;;;;;;4994689;28;20518;-85
2023/02/17 06:52:17;;;;;;;24.20;13.27;;;;;;;;;;4993749;28;20461;-85
2023/02/17 06:54:43;;;;;;;25.50;14.07;;;;;;;;;;4994605;28;20469;-84
2023/02/17 06:57:09;;;;;;;27.40;14.50;;;;;;;;;;4995180;28;20415;-85
2023/02/17 06:59:36;;;;;;;27.20;13.00;;;;;;;;;;4995337;28;20415;-92
2023/02/17 07:02:02;;;;;;;28.10;15.27;;;;;;;;;;4994012;28;20444;-93
2023/02/17 07:04:28;;;;;;;28.40;16.47;;;;;;;;;;4968516;28;20948;-86
2023/02/17 07:06:53;;;;;;;32.50;17.47;;;;;;;;;;5014573;28;20920;-86
2023/02/17 07:09:19;;;;;;;32.57;15.80;;;;;;;;;;5014205;28;20421;-83
2023/02/17 07:11:45;;;;;;;31.17;18.47;;;;;;;;;;5014464;28;20454;-83
2023/02/17 07:14:11;;;;;;;34.03;17.60;;;;;;;;;;5014168;28;20207;-91
2023/02/17 07:16:38;;;;;;;37.10;17.67;;;;;;;;;;5014551;28;20453;-91
2023/02/17 07:19:04;;;;;;;35.70;17.87;;;;;;;;;;5014381;28;20399;-88
2023/02/17 07:21:30;;;;;;;37.67;17.87;;;;;;;;;;5014323;28;20432;-85
2023/02/17 07:23:56;;;;;;;32.40;16.07;;;;;;;;;;5013143;28;20458;-90
2023/02/17 07:26:22;;;;;;;35.73;18.10;;;;;;;;;;5013530;28;20477;-90
2023/02/17 07:28:48;;;;;;;31.87;17.33;;;;;;;;;;5014344;28;20892;-91
2023/02/17 07:31:15;;;;;;;39.47;18.77;;;;;;;;;;5014287;28;20541;-82
2023/02/17 07:33:41;;;;;;;33.87;17.57;;;;;;;;;;5014397;28;20421;-86
2023/02/17 07:36:12;;;;;;;30.47;16.70;;;;;;;;;;5014121;28;20560;-91
2023/02/17 07:38:38;;;;;;;35.37;19.50;;;;;;;;;;5013207;28;20476;-87
2023/02/17 07:41:05;;;;;;;28.50;16.53;;;;;;;;;;5013939;28;20495;-91
2023/02/17 07:43:31;;;;;;;31.60;15.17;;;;;;;;;;5014232;28;20410;-89
2023/02/17 07:45:57;;;;;;;29.70;16.63;;;;;;;;;;5014100;28;20895;-85
2023/02/17 07:48:23;;;;;;;32.33;17.93;;;;;;;;;;5014464;28;20416;-87
2023/02/17 07:50:52;;;;;;;35.00;18.00;;;;;;;;;;5014530;28;20417;-92
2023/02/17 07:53:17;;;;;;;34.47;18.77;;;;;;;;;;5012837;28;20422;-91
2023/02/17 07:55:43;;;;;;;41.43;18.93;;;;;;;;;;5012863;28;20528;-93
2023/02/17 07:58:09;;;;;;;33.50;17.33;;;;;;;;;;5012927;28;20469;-93
2023/02/17 08:00:35;;;;;;;33.23;18.57;;;;;;;;;;5012596;28;20792;-87
2023/02/17 08:03:01;;;;;;;32.57;17.40;;;;;;;;;;5014142;28;20430;-89
2023/02/17 08:05:27;;;;;;;34.50;16.97;;;;;;;;;;4974700;28;20802;-92
2023/02/17 08:13:18;;;;;;;35.17;19.00;;;;;;;;;;5012708;28;20419;-89
2023/02/17 08:13:25;;;;;;;28.67;16.47;;;;;;;;;;5014301;28;20400;-89
2023/02/17 08:15:51;;;;;;;28.97;14.50;;;;;;;;;;5015192;28;20479;-86
2023/02/17 08:18:17;;;;;;;31.67;17.70;;;;;;;;;;5016280;28;20406;-86
2023/02/17 08:20:43;;;;;;;28.27;15.33;;;;;;;;;;5021651;28;20442;-84
2023/02/17 08:23:09;;;;;;;27.50;14.93;;;;;;;;;;5025225;28;20406;-86
2023/02/17 08:25:35;;;;;;;33.77;16.37;;;;;;;;;;5020550;28;20450;-81
2023/02/17 08:28:01;;;;;;;27.20;14.00;;;;;;;;;;5015812;28;20418;-84
2023/02/17 08:30:27;;;;;;;25.30;13.70;;;;;;;;;;5014485;28;20422;-85
2023/02/17 08:32:53;;;;;;;27.77;12.80;;;;;;;;;;5013212;28;20414;-88
2023/02/17 08:35:21;;;;;;;22.80;12.20;;;;;;;;;;5013005;28;20611;-86
2023/02/17 08:37:47;;;;;;;22.17;12.80;;;;;;;;;;5012018;28;20418;-88
2023/02/17 08:40:13;;;;;;;20.83;12.10;;;;;;;;;;5012890;28;20781;-90
2023/02/17 08:42:39;;;;;;;22.33;12.93;;;;;;;;;;5013222;28;20414;-87
2023/02/17 08:45:05;;;;;;;21.60;12.83;;;;;;;;;;5012991;28;20224;-84
2023/02/17 08:47:31;;;;;;;21.33;10.37;;;;;;;;;;5013295;28;20413;-88
2023/02/17 08:49:57;;;;;;;22.00;11.30;;;;;;;;;;5013202;28;21099;-86
2023/02/17 08:52:23;;;;;;;24.93;11.87;;;;;;;;;;5014525;28;20418;-89
2023/02/17 08:54:50;;;;;;;21.57;10.17;;;;;;;;;;5016500;28;20506;-90
2023/02/17 08:57:17;;;;;;;18.10;10.00;;;;;;;;;;5016889;28;20175;-87
2023/02/17 08:59:46;;;;;;;19.67;9.43;;;;;;;;;;5017613;28;20427;-86
2023/02/17 09:02:12;;;;;;;18.47;10.40;;;;;;;;;;5017114;28;20416;-91
2023/02/17 09:04:38;;;;;;;18.60;10.60;;;;;;;;;;5016903;28;20406;-85
2023/02/17 09:07:04;;;;;;;16.73;9.60;;;;;;;;;;4988297;28;20490;-93
2023/02/17 09:09:31;;;;;;;21.83;10.97;;;;;;;;;;5017649;28;20405;-86
2023/02/17 09:11:57;;;;;;;19.67;9.67;;;;;;;;;;5016719;28;20491;-91
2023/02/17 09:14:23;;;;;;;19.43;9.80;;;;;;;;;;5016704;28;20791;-89
2023/02/17 09:16:50;;;;;;;17.07;9.43;;;;;;;;;;5016136;28;20428;-89
2023/02/17 09:19:16;;;;;;;18.97;8.63;;;;;;;;;;5018073;28;20739;-89
2023/02/17 09:21:42;;;;;;;16.57;9.47;;;;;;;;;;5017910;28;20414;-87
2023/02/17 09:24:08;;;;;;;19.90;9.73;;;;;;;;;;5016634;28;20441;-88
2023/02/17 09:26:34;;;;;;;17.33;8.40;;;;;;;;;;5015824;28;20210;-85
2023/02/17 09:29:02;;;;;;;21.57;10.77;;;;;;;;;;5016554;28;20413;-90
2023/02/17 09:31:28;;;;;;;13.47;8.10;;;;;;;;;;5015714;28;20490;-90
2023/02/17 09:33:54;;;;;;;13.00;7.60;;;;;;;;;;5015475;28;20420;-89
2023/02/17 09:36:24;;;;;;;16.97;8.70;;;;;;;;;;5016490;28;20789;-88
2023/02/17 09:38:50;;;;;;;11.97;7.87;;;;;;;;;;5014759;28;20459;-91
2023/02/17 09:41:41;;;;;;;12.93;7.77;;;;;;;;;;5016560;28;20761;-86
2023/02/17 09:44:13;;;;;;;14.17;7.27;;;;;;;;;;5014172;28;20428;-86
2023/02/17 09:46:44;;;;;;;13.90;7.17;;;;;;;;;;5014380;28;20478;-91
2023/02/17 09:49:15;;;;;;;18.03;8.90;;;;;;;;;;5015084;28;20431;-86
2023/02/17 09:51:53;;;;;;;15.20;8.13;;;;;;;;;;5016872;28;20871;-94
2023/02/17 09:54:22;;;;;;;14.80;7.13;;;;;;;;;;5017949;28;20455;-88
2023/02/17 09:56:52;;;;;;;13.30;7.60;;;;;;;;;;5017128;28;21065;-92
2023/02/17 09:59:22;;;;;;;13.10;6.73;;;;;;;;;;5015808;28;20421;-92
2023/02/17 10:01:49;;;;;;;11.03;6.17;;;;;;;;;;5015066;28;20502;-89
2023/02/17 10:04:18;;;;;;;12.20;6.77;;;;;;;;;;5013247;28;20513;-85
2023/02/17 10:06:50;;;;;;;13.40;6.73;;;;;;;;;;4975864;28;20430;-92
2023/02/17 10:09:23;;;;;;;11.90;6.83;;;;;;;;;;5015676;28;20410;-90
2023/02/17 10:11:53;;;;;;;10.33;5.97;;;;;;;;;;5014384;28;20783;-88
2023/02/17 10:14:32;;;;;;;9.60;5.03;;;;;;;;;;5017454;28;20459;-94
2023/02/17 10:17:04;;;;;;;11.67;6.63;;;;;;;;;;5016150;28;20490;-94
2023/02/17 10:19:32;;;;;;;12.70;6.73;;;;;;;;;;5015881;28;20445;-93
2023/02/17 10:22:08;;;;;;;14.20;7.40;;;;;;;;;;5015300;28;20790;-92
2023/02/17 10:24:34;;;;;;;14.40;6.80;;;;;;;;;;5014059;28;20921;-95
2023/02/17 10:27:10;;;;;;;11.50;6.27;;;;;;;;;;5017121;28;20514;-92
2023/02/17 10:29:56;;;;;;;13.70;6.83;;;;;;;;;;5015516;28;20457;-85
2023/02/17 10:32:23;;;;;;;13.87;6.10;;;;;;;;;;5014172;28;20783;-84
2023/02/17 10:35:08;;;;;;;13.73;6.30;;;;;;;;;;5014975;28;20477;-85
2023/02/17 10:37:53;;;;;;;14.73;7.30;;;;;;;;;;5013513;28;20435;-89
2023/02/17 10:40:21;;;;;;;14.90;8.13;;;;;;;;;;5014235;28;20547;-85
2023/02/17 10:42:48;;;;;;;19.57;9.20;;;;;;;;;;5013161;28;20438;-86
2023/02/17 10:45:20;;;;;;;16.87;8.60;;;;;;;;;;5012983;28;20557;-85
2023/02/17 10:47:46;;;;;;;15.70;8.57;;;;;;;;;;5014284;28;20464;-84
2023/02/17 10:50:21;;;;;;;15.07;7.70;;;;;;;;;;5012672;28;20757;-85
2023/02/17 10:52:47;;;;;;;17.53;8.93;;;;;;;;;;5014165;28;20906;-83
2023/02/17 10:55:32;;;;;;;12.27;6.77;;;;;;;;;;5013854;28;20559;-86
2023/02/17 10:58:12;;;;;;;17.20;8.90;;;;;;;;;;5014000;28;20429;-85
2023/02/17 11:00:40;;;;;;;17.93;10.40;;;;;;;;;;5014177;28;20468;-85
2023/02/17 11:03:17;;;;;;;15.73;9.20;;;;;;;;;;5014157;28;20418;-85
2023/02/17 11:05:44;;;;;;;18.40;10.10;;;;;;;;;;5014133;28;20779;-85
2023/02/17 11:08:39;;;;;;;18.83;9.20;;;;;;;;;;5014087;28;20870;-85
2023/02/17 11:11:16;;;;;;;16.57;7.87;;;;;;;;;;5001247;28;20531;-85
2023/02/17 11:13:56;;;;;;;17.93;9.43;;;;;;;;;;4975996;28;20545;-84
2023/02/17 11:16:25;;;;;;;17.73;9.40;;;;;;;;;;5012285;28;20483;-85
2023/02/17 11:18:52;;;;;;;17.07;7.40;;;;;;;;;;5012628;28;20419;-85
2023/02/17 11:21:17;;;;;;;15.37;8.57;;;;;;;;;;5012571;28;20802;-85
2023/02/17 11:24:03;;;;;;;17.50;8.47;;;;;;;;;;5013368;28;20502;-85
2023/02/17 11:26:30;;;;;;;16.40;8.50;;;;;;;;;;5012370;28;20536;-85
2023/02/17 11:29:06;;;;;;;14.57;7.73;;;;;;;;;;5012495;28;20418;-85
2023/02/17 11:31:32;;;;;;;19.40;9.00;;;;;;;;;;5013674;28;20423;-85
2023/02/17 11:34:01;;;;;;;16.23;8.37;;;;;;;;;;5012481;28;20438;-85
2023/02/17 11:36:28;;;;;;;24.40;9.20;;;;;;;;;;5013452;28;20430;-86
2023/02/17 11:38:54;;;;;;;20.33;10.67;;;;;;;;;;5012916;28;20410;-84
2023/02/17 11:41:20;;;;;;;17.77;9.73;;;;;;;;;;5013399;28;20503;-85
2023/02/17 11:43:58;;;;;;;21.57;11.30;;;;;;;;;;5012140;28;20454;-84
2023/02/17 11:46:23;;;;;;;20.80;9.13;;;;;;;;;;5013252;28;20474;-85
2023/02/17 11:48:57;;;;;;;17.33;8.70;;;;;;;;;;5013383;28;20408;-86
2023/02/17 11:51:34;;;;;;;17.93;10.77;;;;;;;;;;5013424;28;20180;-85
2023/02/17 11:54:06;;;;;;;15.67;9.40;;;;;;;;;;5011550;28;20429;-85
2023/02/17 11:56:40;;;;;;;18.80;9.20;;;;;;;;;;5011998;28;20486;-86
2023/02/17 11:59:22;;;;;;;17.70;9.83;;;;;;;;;;5012025;28;20425;-85
2023/02/17 12:01:55;;;;;;;21.57;8.60;;;;;;;;;;5013288;28;20509;-85
2023/02/17 12:04:25;;;;;;;15.43;9.10;;;;;;;;;;5013344;28;20440;-84
2023/02/17 12:06:59;;;;;;;17.33;8.53;;;;;;;;;;5013196;28;20406;-86
2023/02/17 12:09:48;;;;;;;15.60;8.57;;;;;;;;;;5012895;28;20415;-85
2023/02/17 12:12:24;;;;;;;17.03;8.83;;;;;;;;;;4972443;28;20526;-87
2023/02/17 12:15:13;;;;;;;23.90;11.40;;;;;;;;;;5011249;28;20474;-85
2023/02/17 12:17:43;;;;;;;17.90;8.30;;;;;;;;;;5002184;28;20912;-85
2023/02/17 12:20:15;;;;;;;15.43;9.03;;;;;;;;;;5011800;28;20919;-85
2023/02/17 12:22:59;;;;;;;17.33;8.33;;;;;;;;;;5013096;28;20447;-85
2023/02/17 12:25:46;;;;;;;13.47;6.27;;;;;;;;;;5012741;28;20772;-86
2023/02/17 12:28:25;;;;;;;15.73;8.53;;;;;;;;;;5014150;28;20418;-86
2023/02/17 12:30:57;;;;;;;17.90;7.70;;;;;;;;;;5016877;28;20957;-85
2023/02/17 12:33:31;;;;;;;14.17;7.40;;;;;;;;;;5016883;28;20532;-86
2023/02/17 12:36:01;;;;;;;17.00;5.53;;;;;;;;;;5016658;28;20476;-86
2023/02/17 12:38:32;;;;;;;9.40;5.33;;;;;;;;;;5015140;28;20947;-86
2023/02/17 12:41:14;;;;;;;14.13;5.87;;;;;;;;;;5015336;28;20453;-86
2023/02/17 12:43:43;;;;;;;13.67;5.53;;;;;;;;;;5015466;28;20461;-88
2023/02/17 12:46:15;;;;;;;9.70;5.13;;;;;;;;;;5016476;28;20816;-86
2023/02/17 12:48:46;;;;;;;10.57;5.80;;;;;;;;;;5016568;28;20429;-87
2023/02/17 12:51:17;;;;;;;9.00;4.50;;;;;;;;;;5016458;28;20399;-86
2023/02/17 12:53:45;;;;;;;12.00;4.73;;;;;;;;;;5016118;28;20816;-87
2023/02/17 12:56:38;;;;;;;12.20;5.30;;;;;;;;;;5016392;28;20491;-87
2023/02/17 12:59:12;;;;;;;10.40;5.70;;;;;;;;;;4985710;28;20411;-87
2023/02/17 13:01:41;;;;;;;12.03;5.70;;;;;;;;;;5015064;28;20480;-86
2023/02/17 13:04:09;;;;;;;9.27;4.97;;;;;;;;;;5016445;28;20451;-86
2023/02/17 13:06:42;;;;;;;7.10;4.10;;;;;;;;;;5016946;28;20414;-87
2023/02/17 13:09:17;;;;;;;10.63;4.83;;;;;;;;;;5014990;28;20450;-87
2023/02/17 13:11:44;;;;;;;5.33;2.17;;;;;;;;;;5016242;28;20412;-85
2023/02/17 13:14:10;;;;;;;7.73;3.57;;;;;;;;;;4973851;28;20430;-88
2023/02/17 13:16:43;;;;;;;8.90;3.43;;;;;;;;;;5016180;28;20426;-86
2023/02/17 13:19:15;;;;;;;7.17;3.60;;;;;;;;;;5014734;28;20237;-86
2023/02/17 13:21:58;;;;;;;7.97;3.20;;;;;;;;;;5016089;28;20442;-84
2023/02/17 13:24:35;;;;;;;7.93;3.50;;;;;;;;;;5015690;28;20420;-86
2023/02/17 13:27:20;;;;;;;6.23;2.97;;;;;;;;;;5016250;28;20821;-84
2023/02/17 13:29:46;;;;;;;6.63;2.53;;;;;;;;;;5016122;28;20772;-86
2023/02/17 13:32:12;;;;;;;4.87;2.30;;;;;;;;;;5016043;28;20763;-85
2023/02/17 13:34:43;;;;;;;4.97;2.10;;;;;;;;;;5014558;28;20544;-86
2023/02/17 13:37:17;;;;;;;8.57;3.17;;;;;;;;;;5015674;28;20416;-87
2023/02/17 13:39:43;;;;;;;5.67;2.23;;;;;;;;;;5015176;28;20403;-86
2023/02/17 13:42:28;;;;;;;9.63;3.33;;;;;;;;;;5014492;28;20430;-87
2023/02/17 13:44:54;;;;;;;8.40;2.97;;;;;;;;;;5015394;28;20447;-86
2023/02/17 13:47:33;;;;;;;5.10;2.47;;;;;;;;;;5014057;28;20813;-85
2023/02/17 13:49:59;;;;;;;7.67;4.30;;;;;;;;;;5014113;28;20506;-87
2023/02/17 13:52:26;;;;;;;8.67;3.63;;;;;;;;;;5015727;28;20506;-87
2023/02/17 13:54:53;;;;;;;7.50;3.40;;;;;;;;;;5013777;28;20984;-86
2023/02/17 13:57:23;;;;;;;8.30;3.87;;;;;;;;;;5015239;28;20515;-86
2023/02/17 13:59:49;;;;;;;8.97;4.10;;;;;;;;;;5015570;28;20411;-85
2023/02/17 14:02:19;;;;;;;7.33;4.07;;;;;;;;;;5014884;28;20423;-85
2023/02/17 14:04:45;;;;;;;5.13;3.43;;;;;;;;;;5014728;28;20448;-88
2023/02/17 14:07:11;;;;;;;11.83;4.30;;;;;;;;;;5015563;28;20414;-87
2023/02/17 14:09:37;;;;;;;10.40;5.03;;;;;;;;;;5014905;28;20456;-87
2023/02/17 14:12:07;;;;;;;12.53;5.40;;;;;;;;;;5013910;28;20474;-86
2023/02/17 14:14:35;;;;;;;6.50;3.23;;;;;;;;;;4974107;28;20606;-87
2023/02/17 14:17:05;;;;;;;8.93;4.33;;;;;;;;;;5013799;28;20781;-86
2023/02/17 14:19:42;;;;;;;7.97;3.20;;;;;;;;;;5013675;28;20414;-86